Time,TemperatureF,DewpointF,PressureIn,WindDirection,WindDirectionDegrees,WindSpeedMPH,WindSpeedGustMPH,Humidity,HourlyPrecipIn,Conditions,Clouds,dailyrainin,SoftwareType,DateUTC
2013-09-16 00:02:00,67.0,63.3,30.23,North,0,2.7,2.7,88,0.02,,,0.01,WUHU216HW,2013-09-16 05:02:00,
2013-09-16 00:07:00,66.6,63.2,30.24,North,0,2.2,2.7,89,0.02,,,0.01,WUHU216HW,2013-09-16 05:07:00,
2013-09-16 00:12:00,66.4,63.4,30.24,North,0,2.5,2.7,90,0.03,,,0.02,WUHU216HW,2013-09-16 05:12:00,
2013-09-16 00:17:00,66.1,63.4,30.23,ENE,68,1.1,2.5,91,0.03,,,0.02,WUHU216HW,2013-09-16 05:17:00,
2013-09-16 00:22:00,65.9,63.5,30.23,NNE,23,2.5,4.0,92,0.04,,,0.03,WUHU216HW,2013-09-16 05:22:00,
2013-09-16 00:27:00,65.7,63.6,30.22,NNE,23,1.8,4.0,93,0.05,,,0.04,WUHU216HW,2013-09-16 05:27:00,
2013-09-16 00:32:00,65.5,63.7,30.22,East,90,1.8,2.5,94,0.06,,,0.05,WUHU216HW,2013-09-16 05:32:00,
2013-09-16 00:37:00,65.2,64.0,30.23,NNE,23,1.8,2.5,96,0.06,,,0.05,WUHU216HW,2013-09-16 05:37:00,
2013-09-16 00:42:00,65.2,64.0,30.23,NNE,23,1.8,2.5,96,0.06,,,0.05,WUHU216HW,2013-09-16 05:42:00,
2013-09-16 00:47:00,65.0,64.1,30.24,NE,45,3.4,3.4,97,0.06,,,0.05,WUHU216HW,2013-09-16 05:47:00,
2013-09-16 00:52:00,65.0,64.4,30.25,NNE,23,0.0,3.4,98,0.05,,,0.05,WUHU216HW,2013-09-16 05:52:00,
2013-09-16 00:57:00,65.0,64.4,30.25,North,0,1.3,3.4,98,0.05,,,0.05,WUHU216HW,2013-09-16 05:57:00,
2013-09-16 01:02:00,65.0,64.4,30.26,NE,45,2.0,2.0,98,0.04,,,0.05,WUHU216HW,2013-09-16 06:02:00,
2013-09-16 01:07:00,64.8,64.5,30.25,ESE,113,0.9,2.0,99,0.05,,,0.06,WUHU216HW,2013-09-16 06:07:00,
2013-09-16 01:12:00,64.8,64.5,30.25,ESE,113,0.9,2.0,99,0.04,,,0.06,WUHU216HW,2013-09-16 06:12:00,
2013-09-16 01:17:00,64.8,64.5,30.25,SE,135,0.4,0.9,99,0.03,,,0.06,WUHU216HW,2013-09-16 06:17:00,
2013-09-16 01:22:00,64.8,64.5,30.25,ESE,113,0.9,1.3,99,0.03,,,0.06,WUHU216HW,2013-09-16 06:22:00,
2013-09-16 01:27:00,64.6,64.4,30.25,ESE,113,0.7,1.3,99,0.03,,,0.07,WUHU216HW,2013-09-16 06:27:00,
2013-09-16 01:32:00,64.6,64.4,30.25,ESE,113,1.8,1.8,99,0.02,,,0.07,WUHU216HW,2013-09-16 06:32:00,
2013-09-16 01:37:00,64.6,64.4,30.25,ENE,68,1.1,1.8,99,0.02,,,0.07,WUHU216HW,2013-09-16 06:37:00,
2013-09-16 01:42:00,64.6,64.4,30.25,East,90,4.7,4.7,99,0.02,,,0.07,WUHU216HW,2013-09-16 06:42:00,
2013-09-16 01:47:00,64.4,64.2,30.25,ENE,68,1.8,4.7,99,0.02,,,0.07,WUHU216HW,2013-09-16 06:47:00,
2013-09-16 01:52:00,64.3,64.0,30.25,ESE,113,2.5,4.7,99,0.03,,,0.08,WUHU216HW,2013-09-16 06:52:00,
2013-09-16 01:57:00,64.1,63.8,30.25,South,180,0.9,2.5,99,0.03,,,0.08,WUHU216HW,2013-09-16 06:57:00,
2013-09-16 02:02:00,64.1,63.8,30.26,SE,135,0.7,2.5,99,0.02,,,0.08,WUHU216HW,2013-09-16 07:02:00,
2013-09-16 02:07:00,64.1,63.8,30.25,ENE,68,3.6,3.6,99,0.02,,,0.08,WUHU216HW,2013-09-16 07:07:00,
2013-09-16 02:12:00,64.1,63.8,30.25,NNE,23,4.0,4.0,99,0.03,,,0.09,WUHU216HW,2013-09-16 07:12:00,
2013-09-16 02:17:00,64.1,63.8,30.25,East,90,2.2,4.0,99,0.03,,,0.09,WUHU216HW,2013-09-16 07:17:00,
2013-09-16 02:22:00,64.1,63.8,30.26,ESE,113,1.1,4.0,99,0.03,,,0.09,WUHU216HW,2013-09-16 07:22:00,
2013-09-16 02:27:00,63.9,63.6,30.26,ENE,68,2.0,3.4,99,0.02,,,0.09,WUHU216HW,2013-09-16 07:27:00,
2013-09-16 02:32:00,64.1,63.8,30.26,NE,45,2.5,4.0,99,0.02,,,0.09,WUHU216HW,2013-09-16 07:32:00,
2013-09-16 02:37:00,63.9,63.6,30.27,East,90,4.0,4.0,99,0.02,,,0.09,WUHU216HW,2013-09-16 07:37:00,
2013-09-16 02:42:00,63.9,63.6,30.27,ESE,113,1.1,4.0,99,0.02,,,0.09,WUHU216HW,2013-09-16 07:42:00,
2013-09-16 02:47:00,63.7,63.5,30.26,East,90,1.1,4.0,99,0.02,,,0.09,WUHU216HW,2013-09-16 07:47:00,
2013-09-16 02:52:00,63.7,63.5,30.26,ESE,113,1.6,1.6,99,0.01,,,0.09,WUHU216HW,2013-09-16 07:52:00,
2013-09-16 02:57:00,63.7,63.5,30.26,East,90,4.7,6.9,99,0.01,,,0.09,WUHU216HW,2013-09-16 07:57:00,
2013-09-16 03:02:00,63.5,63.3,30.26,ENE,68,2.2,6.9,99,0.01,,,0.09,WUHU216HW,2013-09-16 08:02:00,
2013-09-16 03:07:00,63.5,63.3,30.25,SE,135,5.4,5.4,99,0.01,,,0.09,WUHU216HW,2013-09-16 08:07:00,
2013-09-16 03:12:00,63.4,63.1,30.25,ESE,113,1.8,5.4,99,0.01,,,0.11,WUHU216HW,2013-09-16 08:12:00,
2013-09-16 03:17:00,63.4,63.1,30.25,East,90,1.8,5.4,99,0.01,,,0.11,WUHU216HW,2013-09-16 08:17:00,
2013-09-16 03:22:00,63.4,63.1,30.25,ESE,113,2.0,2.0,99,0.01,,,0.11,WUHU216HW,2013-09-16 08:22:00,
2013-09-16 03:27:00,63.4,63.1,30.25,ENE,68,3.1,3.1,99,0.02,,,0.11,WUHU216HW,2013-09-16 08:27:00,
2013-09-16 03:32:00,63.4,63.1,30.25,NE,45,4.3,5.4,99,0.03,,,0.12,WUHU216HW,2013-09-16 08:32:00,
2013-09-16 03:37:00,63.4,63.1,30.26,North,0,1.1,5.4,99,0.03,,,0.12,WUHU216HW,2013-09-16 08:37:00,
2013-09-16 03:42:00,63.4,63.1,30.26,ESE,113,0.9,4.3,99,0.04,,,0.13,WUHU216HW,2013-09-16 08:42:00,
2013-09-16 03:47:00,63.4,63.1,30.25,SE,135,1.6,2.5,99,0.04,,,0.13,WUHU216HW,2013-09-16 08:47:00,
2013-09-16 03:52:00,63.4,63.1,30.25,NNE,23,2.2,2.5,99,0.04,,,0.13,WUHU216HW,2013-09-16 08:52:00,
2013-09-16 03:57:00,63.4,63.1,30.25,ENE,68,2.9,3.8,99,0.05,,,0.14,WUHU216HW,2013-09-16 08:57:00,
2013-09-16 04:02:00,63.4,63.1,30.25,SE,135,1.8,3.8,99,0.05,,,0.14,WUHU216HW,2013-09-16 09:02:00,
2013-09-16 04:07:00,63.2,62.9,30.26,NNW,338,0.2,2.9,99,0.05,,,0.14,WUHU216HW,2013-09-16 09:07:00,
2013-09-16 04:12:00,63.2,62.9,30.25,ESE,113,2.7,3.1,99,0.05,,,0.16,WUHU216HW,2013-09-16 09:12:00,
2013-09-16 04:17:00,63.2,62.9,30.25,ESE,113,2.7,3.1,99,0.05,,,0.16,WUHU216HW,2013-09-16 09:17:00,
2013-09-16 04:22:00,63.2,62.9,30.25,East,90,4.0,4.0,99,0.04,,,0.16,WUHU216HW,2013-09-16 09:22:00,
2013-09-16 04:27:00,63.2,62.9,30.25,ENE,68,2.5,4.0,99,0.04,,,0.16,WUHU216HW,2013-09-16 09:27:00,
2013-09-16 04:32:00,63.2,62.9,30.25,East,90,2.2,4.0,99,0.03,,,0.16,WUHU216HW,2013-09-16 09:32:00,
2013-09-16 04:37:00,63.4,63.1,30.25,ENE,68,2.5,2.5,99,0.02,,,0.16,WUHU216HW,2013-09-16 09:37:00,
2013-09-16 04:42:00,63.4,63.1,30.24,ESE,113,6.0,6.0,99,0.02,,,0.16,WUHU216HW,2013-09-16 09:42:00,
2013-09-16 04:47:00,63.2,62.9,30.25,ENE,68,2.5,6.0,99,0.02,,,0.16,WUHU216HW,2013-09-16 09:47:00,
2013-09-16 04:52:00,63.2,62.9,30.25,SSE,158,1.3,6.0,99,0.01,,,0.16,WUHU216HW,2013-09-16 09:52:00,
2013-09-16 04:57:00,63.2,62.9,30.25,ENE,68,2.0,2.5,99,0.01,,,0.16,WUHU216HW,2013-09-16 09:57:00,
2013-09-16 05:02:00,63.2,62.9,30.25,ENE,68,6.9,6.9,99,0.02,,,0.16,WUHU216HW,2013-09-16 10:02:00,
2013-09-16 05:07:00,63.4,63.1,30.26,SE,135,2.7,6.9,99,0.01,,,0.16,WUHU216HW,2013-09-16 10:07:00,
2013-09-16 05:12:00,63.4,63.1,30.26,North,0,0.7,6.9,99,0.01,,,0.16,WUHU216HW,2013-09-16 10:12:00,
2013-09-16 05:17:00,63.4,63.1,30.26,East,90,1.6,2.7,99,0.01,,,0.16,WUHU216HW,2013-09-16 10:17:00,
2013-09-16 05:22:00,63.4,63.1,30.26,NE,45,4.0,4.0,99,0.01,,,0.16,WUHU216HW,2013-09-16 10:22:00,
2013-09-16 05:27:00,63.5,63.3,30.27,ENE,68,5.4,5.4,99,0.01,,,0.16,WUHU216HW,2013-09-16 10:27:00,
2013-09-16 05:32:00,63.5,63.3,30.27,ESE,113,1.1,5.4,99,0.01,,,0.16,WUHU216HW,2013-09-16 10:32:00,
2013-09-16 05:37:00,63.7,63.5,30.27,East,90,1.6,5.4,99,0.01,,,0.16,WUHU216HW,2013-09-16 10:37:00,
2013-09-16 05:42:00,63.7,63.5,30.27,ENE,68,1.8,1.8,99,0.01,,,0.16,WUHU216HW,2013-09-16 10:42:00,
2013-09-16 05:47:00,63.7,63.5,30.27,SE,135,1.6,1.8,99,0.01,,,0.16,WUHU216HW,2013-09-16 10:47:00,
2013-09-16 05:52:00,63.9,63.6,30.28,ESE,113,3.6,3.6,99,0.01,,,0.16,WUHU216HW,2013-09-16 10:52:00,
2013-09-16 05:57:00,63.9,63.6,30.28,ESE,113,0.7,3.6,99,0.00,,,0.16,WUHU216HW,2013-09-16 10:57:00,
2013-09-16 06:02:00,64.1,63.8,30.28,ESE,113,1.8,3.6,99,0.00,,,0.16,WUHU216HW,2013-09-16 11:02:00,
2013-09-16 06:07:00,64.1,63.8,30.28,ESE,113,3.4,3.4,99,0.00,,,0.16,WUHU216HW,2013-09-16 11:07:00,
2013-09-16 06:12:00,64.1,63.8,30.27,SE,135,2.2,3.4,99,0.00,,,0.16,WUHU216HW,2013-09-16 11:12:00,
2013-09-16 06:17:00,64.1,63.8,30.27,SE,135,2.2,3.4,99,0.00,,,0.16,WUHU216HW,2013-09-16 11:17:00,
2013-09-16 06:22:00,64.1,63.8,30.27,SE,135,2.2,2.2,99,0.00,,,0.16,WUHU216HW,2013-09-16 11:22:00,
2013-09-16 06:26:00,64.4,64.2,30.27,East,90,0.9,0.9,99,0.00,,,0.16,WUHU216HW,2013-09-16 11:26:00,
2013-09-16 06:27:00,64.4,64.2,30.27,East,90,0.9,0.9,99,0.00,,,0.16,WUHU216HW,2013-09-16 11:27:00,
2013-09-16 06:32:00,64.4,64.2,30.27,East,90,0.9,0.9,99,0.00,,,0.16,WUHU216HW,2013-09-16 11:32:00,
2013-09-16 11:05:00,68.2,68.0,30.35,East,90,4.0,4.0,99,0.00,,,0.16,WUHU216HW,2013-09-16 16:05:00,
2013-09-16 11:10:00,68.0,67.8,30.35,ESE,113,1.6,4.0,99,0.00,,,0.16,WUHU216HW,2013-09-16 16:10:00,
2013-09-16 11:15:00,68.6,68.3,30.35,NE,45,2.0,4.0,99,0.00,,,0.16,WUHU216HW,2013-09-16 16:15:00,
2013-09-16 11:20:00,68.2,68.0,30.35,East,90,6.3,6.3,99,0.00,,,0.16,WUHU216HW,2013-09-16 16:20:00,
2013-09-16 11:25:00,68.4,68.1,30.35,ESE,113,5.6,6.3,99,0.00,,,0.16,WUHU216HW,2013-09-16 16:25:00,
2013-09-16 11:30:00,68.2,68.0,30.35,ESE,113,2.2,6.3,99,0.00,,,0.16,WUHU216HW,2013-09-16 16:30:00,
2013-09-16 11:35:00,68.4,68.1,30.34,ENE,68,2.5,5.6,99,0.00,,,0.16,WUHU216HW,2013-09-16 16:35:00,
2013-09-16 11:40:00,68.6,68.3,30.34,ESE,113,0.2,2.5,99,0.00,,,0.16,WUHU216HW,2013-09-16 16:40:00,
2013-09-16 11:45:00,68.4,68.1,30.34,ENE,68,0.7,2.7,99,0.00,,,0.16,WUHU216HW,2013-09-16 16:45:00,
2013-09-16 11:50:00,68.4,68.1,30.34,East,90,4.7,4.7,99,0.00,,,0.16,WUHU216HW,2013-09-16 16:50:00,
2013-09-16 11:55:00,68.6,68.3,30.35,SSW,203,1.3,4.7,99,0.00,,,0.16,WUHU216HW,2013-09-16 16:55:00,
2013-09-16 12:00:00,68.8,68.5,30.35,East,90,4.9,4.9,99,0.00,,,0.16,WUHU216HW,2013-09-16 17:00:00,
2013-09-16 12:05:00,68.9,68.7,30.34,ESE,113,0.7,4.9,99,0.00,,,0.16,WUHU216HW,2013-09-16 17:05:00,
2013-09-16 12:10:00,68.9,68.7,30.34,ENE,68,2.0,4.9,99,0.00,,,0.16,WUHU216HW,2013-09-16 17:10:00,
2013-09-16 12:15:00,68.9,68.7,30.35,East,90,7.4,7.4,99,0.00,,,0.16,WUHU216HW,2013-09-16 17:15:00,
2013-09-16 12:20:00,69.1,68.9,30.35,East,90,1.1,7.4,99,0.00,,,0.16,WUHU216HW,2013-09-16 17:20:00,
2013-09-16 12:25:00,69.1,68.9,30.34,ENE,68,4.3,7.4,99,0.00,,,0.16,WUHU216HW,2013-09-16 17:25:00,
2013-09-16 12:30:00,69.1,68.9,30.34,NNE,23,1.1,4.3,99,0.00,,,0.16,WUHU216HW,2013-09-16 17:30:00,
2013-09-16 12:35:00,69.1,68.9,30.34,ESE,113,4.3,4.3,99,0.00,,,0.16,WUHU216HW,2013-09-16 17:35:00,
2013-09-16 12:40:00,69.1,68.9,30.34,ENE,68,3.6,4.3,99,0.00,,,0.16,WUHU216HW,2013-09-16 17:40:00,
2013-09-16 12:45:00,69.3,69.0,30.34,ENE,68,3.4,4.3,99,0.00,,,0.16,WUHU216HW,2013-09-16 17:45:00,
2013-09-16 12:50:00,69.1,68.9,30.34,SE,135,1.8,3.6,99,0.00,,,0.16,WUHU216HW,2013-09-16 17:50:00,
2013-09-16 12:55:00,69.1,68.9,30.34,ESE,113,1.1,3.4,99,0.00,,,0.16,WUHU216HW,2013-09-16 17:55:00,
2013-09-16 13:00:00,69.1,68.9,30.33,ESE,113,4.7,4.7,99,0.00,,,0.16,WUHU216HW,2013-09-16 18:00:00,
2013-09-16 13:05:00,69.3,69.0,30.33,NE,45,3.4,4.7,99,0.00,,,0.16,WUHU216HW,2013-09-16 18:05:00,
2013-09-16 13:10:00,69.5,69.2,30.33,NE,45,1.8,4.7,99,0.00,,,0.16,WUHU216HW,2013-09-16 18:10:00,
2013-09-16 13:15:00,69.5,69.2,30.33,ENE,68,4.0,4.0,99,0.00,,,0.16,WUHU216HW,2013-09-16 18:15:00,
2013-09-16 13:20:00,69.7,69.4,30.33,ESE,113,7.2,7.2,99,0.00,,,0.16,WUHU216HW,2013-09-16 18:20:00,
2013-09-16 13:25:00,69.5,69.2,30.33,SE,135,3.6,7.2,99,0.00,,,0.16,WUHU216HW,2013-09-16 18:25:00,
2013-09-16 13:30:00,69.7,69.4,30.33,NNE,23,2.5,7.2,99,0.00,,,0.16,WUHU216HW,2013-09-16 18:30:00,
2013-09-16 13:35:00,69.7,69.4,30.33,NE,45,2.5,3.6,99,0.00,,,0.16,WUHU216HW,2013-09-16 18:35:00,
2013-09-16 13:40:00,69.7,69.4,30.33,SE,135,3.4,3.4,99,0.00,,,0.16,WUHU216HW,2013-09-16 18:40:00,
2013-09-16 13:45:00,69.8,69.6,30.33,ENE,68,1.1,3.4,99,0.00,,,0.16,WUHU216HW,2013-09-16 18:45:00,
2013-09-16 13:51:00,69.8,69.6,30.33,North,0,1.6,3.4,99,0.00,,,0.16,WUHU216HW,2013-09-16 18:51:00,
2013-09-16 13:56:00,69.8,69.6,30.32,NE,45,3.4,3.4,99,0.00,,,0.16,WUHU216HW,2013-09-16 18:56:00,
2013-09-16 14:00:00,69.8,69.6,30.32,NE,45,4.7,4.7,99,0.00,,,0.16,WUHU216HW,2013-09-16 19:00:00,
2013-09-16 14:05:00,70.0,69.8,30.31,North,0,1.8,4.7,99,0.00,,,0.16,WUHU216HW,2013-09-16 19:05:00,
2013-09-16 14:10:00,69.8,69.6,30.31,East,90,5.4,5.4,99,0.00,,,0.16,WUHU216HW,2013-09-16 19:10:00,
2013-09-16 14:15:00,70.0,69.8,30.31,North,0,8.3,8.3,99,0.00,,,0.16,WUHU216HW,2013-09-16 19:15:00,
2013-09-16 14:20:00,70.0,69.8,30.31,ESE,113,7.2,8.3,99,0.00,,,0.16,WUHU216HW,2013-09-16 19:20:00,
2013-09-16 14:25:00,70.0,69.8,30.31,SE,135,3.4,8.3,99,0.00,,,0.16,WUHU216HW,2013-09-16 19:25:00,
2013-09-16 14:31:00,69.8,69.6,30.31,ENE,68,5.4,7.2,99,0.00,,,0.16,WUHU216HW,2013-09-16 19:31:00,
2013-09-16 14:36:00,70.0,69.8,30.30,ESE,113,4.5,5.4,99,0.00,,,0.16,WUHU216HW,2013-09-16 19:36:00,
2013-09-16 14:41:00,70.0,69.8,30.30,ESE,113,3.4,5.4,99,0.00,,,0.16,WUHU216HW,2013-09-16 19:41:00,
2013-09-16 14:46:00,70.2,69.9,30.30,SE,135,1.8,4.5,99,0.00,,,0.16,WUHU216HW,2013-09-16 19:46:00,
2013-09-16 14:51:00,70.4,70.1,30.30,East,90,2.9,4.7,99,0.00,,,0.16,WUHU216HW,2013-09-16 19:51:00,
2013-09-16 14:56:00,70.2,69.9,30.30,SE,135,2.5,4.7,99,0.00,,,0.16,WUHU216HW,2013-09-16 19:56:00,
2013-09-16 15:01:00,70.4,70.1,30.30,SE,135,2.0,2.9,99,0.00,,,0.16,WUHU216HW,2013-09-16 20:01:00,
2013-09-16 15:06:00,70.4,70.1,30.30,NNE,23,2.0,4.0,99,0.00,,,0.16,WUHU216HW,2013-09-16 20:06:00,
2013-09-16 15:11:00,70.6,70.3,30.30,SE,135,1.3,4.0,99,0.00,,,0.16,WUHU216HW,2013-09-16 20:11:00,
2013-09-16 15:16:00,70.4,70.1,30.30,ENE,68,4.7,4.7,99,0.00,,,0.16,WUHU216HW,2013-09-16 20:16:00,
2013-09-16 15:21:00,70.6,70.3,30.29,ENE,68,1.1,4.7,99,0.00,,,0.16,WUHU216HW,2013-09-16 20:21:00,
2013-09-16 15:26:00,70.7,70.5,30.29,SE,135,3.1,4.7,99,0.00,,,0.16,WUHU216HW,2013-09-16 20:26:00,
2013-09-16 15:31:00,70.7,70.5,30.29,ESE,113,4.7,4.7,99,0.00,,,0.16,WUHU216HW,2013-09-16 20:31:00,
2013-09-16 15:36:00,70.9,70.7,30.29,ESE,113,2.7,4.7,99,0.00,,,0.16,WUHU216HW,2013-09-16 20:36:00,
2013-09-16 15:41:00,70.9,70.7,30.28,ENE,68,4.0,4.7,99,0.00,,,0.16,WUHU216HW,2013-09-16 20:41:00,
2013-09-16 15:46:00,70.9,70.7,30.28,South,180,5.4,5.4,99,0.00,,,0.16,WUHU216HW,2013-09-16 20:46:00,
2013-09-16 15:51:00,71.1,70.8,30.28,ENE,68,6.3,6.7,99,0.00,,,0.16,WUHU216HW,2013-09-16 20:51:00,
2013-09-16 15:56:00,71.3,71.0,30.28,SE,135,4.7,6.7,99,0.00,,,0.16,WUHU216HW,2013-09-16 20:56:00,
2013-09-16 16:01:00,71.3,71.0,30.28,ESE,113,0.7,6.3,99,0.00,,,0.16,WUHU216HW,2013-09-16 21:01:00,
2013-09-16 16:06:00,71.1,70.8,30.28,ESE,113,5.4,5.4,99,0.00,,,0.16,WUHU216HW,2013-09-16 21:06:00,
2013-09-16 16:11:00,71.3,71.0,30.27,East,90,6.9,6.9,99,0.00,,,0.16,WUHU216HW,2013-09-16 21:11:00,
2013-09-16 16:16:00,71.3,71.0,30.27,NE,45,2.2,6.9,99,0.00,,,0.16,WUHU216HW,2013-09-16 21:16:00,
2013-09-16 16:21:00,71.5,71.2,30.27,ENE,68,4.5,6.9,99,0.00,,,0.16,WUHU216HW,2013-09-16 21:21:00,
2013-09-16 16:26:00,71.5,71.2,30.27,East,90,4.0,4.5,99,0.00,,,0.16,WUHU216HW,2013-09-16 21:26:00,
2013-09-16 16:31:00,71.8,71.6,30.27,ENE,68,3.6,4.7,99,0.00,,,0.16,WUHU216HW,2013-09-16 21:31:00,
2013-09-16 16:36:00,71.6,71.4,30.27,ENE,68,4.9,4.9,99,0.00,,,0.16,WUHU216HW,2013-09-16 21:36:00,
2013-09-16 16:41:00,71.8,71.6,30.27,East,90,2.2,4.9,99,0.00,,,0.16,WUHU216HW,2013-09-16 21:41:00,
2013-09-16 16:46:00,72.0,71.7,30.27,ENE,68,2.5,4.9,99,0.00,,,0.16,WUHU216HW,2013-09-16 21:46:00,
2013-09-16 16:51:00,71.8,71.6,30.27,ESE,113,6.9,6.9,99,0.00,,,0.16,WUHU216HW,2013-09-16 21:51:00,
2013-09-16 16:56:00,72.0,71.7,30.27,East,90,2.2,6.9,99,0.00,,,0.16,WUHU216HW,2013-09-16 21:56:00,
2013-09-16 17:01:00,72.0,71.7,30.28,SE,135,2.2,6.9,99,0.00,,,0.16,WUHU216HW,2013-09-16 22:01:00,
2013-09-16 17:06:00,72.2,71.9,30.28,ESE,113,0.9,2.2,99,0.00,,,0.16,WUHU216HW,2013-09-16 22:06:00,
2013-09-16 17:11:00,72.2,71.9,30.28,SE,135,2.5,2.5,99,0.00,,,0.16,WUHU216HW,2013-09-16 22:11:00,
2013-09-16 17:16:00,72.2,71.9,30.28,SSE,158,0.2,2.5,99,0.00,,,0.16,WUHU216HW,2013-09-16 22:16:00,
2013-09-16 17:21:00,72.5,72.3,30.28,ESE,113,1.3,2.5,99,0.00,,,0.16,WUHU216HW,2013-09-16 22:21:00,
2013-09-16 17:26:00,72.4,72.1,30.28,East,90,5.1,5.1,99,0.00,,,0.16,WUHU216HW,2013-09-16 22:26:00,
2013-09-16 17:30:00,72.4,72.1,30.28,ENE,68,3.8,5.1,99,0.00,,,0.16,WUHU216HW,2013-09-16 22:30:00,
2013-09-16 17:35:00,72.4,72.1,30.29,North,0,0.7,5.1,99,0.00,,,0.16,WUHU216HW,2013-09-16 22:35:00,
2013-09-16 17:40:00,72.7,72.5,30.28,ESE,113,0.4,3.8,99,0.00,,,0.16,WUHU216HW,2013-09-16 22:40:00,
2013-09-16 17:45:00,72.7,72.5,30.28,East,90,1.3,1.3,99,0.00,,,0.16,WUHU216HW,2013-09-16 22:45:00,
2013-09-16 17:50:00,72.7,72.5,30.29,SSW,203,1.6,1.6,99,0.00,,,0.16,WUHU216HW,2013-09-16 22:50:00,
2013-09-16 17:55:00,72.7,72.5,30.29,East,90,2.5,5.6,99,0.00,,,0.16,WUHU216HW,2013-09-16 22:55:00,
2013-09-16 18:00:00,72.7,72.5,30.28,ESE,113,1.1,5.6,99,0.00,,,0.16,WUHU216HW,2013-09-16 23:00:00,
2013-09-16 18:05:00,72.5,72.3,30.28,ESE,113,1.1,2.5,99,0.00,,,0.16,WUHU216HW,2013-09-16 23:05:00,
2013-09-16 18:10:00,72.9,72.6,30.28,NNE,23,2.0,2.0,99,0.00,,,0.16,WUHU216HW,2013-09-16 23:10:00,
2013-09-16 18:16:00,72.7,72.5,30.28,ESE,113,3.8,3.8,99,0.00,,,0.16,WUHU216HW,2013-09-16 23:16:00,
2013-09-16 18:20:00,72.9,72.6,30.28,East,90,1.8,3.8,99,0.00,,,0.16,WUHU216HW,2013-09-16 23:20:00,
2013-09-16 18:25:00,72.9,72.6,30.28,East,90,0.4,3.8,99,0.00,,,0.16,WUHU216HW,2013-09-16 23:25:00,
2013-09-16 18:30:00,73.1,72.8,30.28,ESE,113,3.4,3.4,99,0.00,,,0.16,WUHU216HW,2013-09-16 23:30:00,
2013-09-16 18:36:00,73.3,73.0,30.28,SE,135,2.0,3.4,99,0.00,,,0.16,WUHU216HW,2013-09-16 23:36:00,
2013-09-16 18:41:00,73.1,72.8,30.28,ESE,113,1.1,3.4,99,0.00,,,0.16,WUHU216HW,2013-09-16 23:41:00,
2013-09-16 18:45:00,73.3,73.0,30.28,East,90,2.5,2.5,99,0.00,,,0.16,WUHU216HW,2013-09-16 23:45:00,
2013-09-16 18:51:00,73.1,72.8,30.28,East,90,0.7,2.5,99,0.00,,,0.16,WUHU216HW,2013-09-16 23:51:00,
2013-09-16 18:55:00,73.4,73.2,30.28,ENE,68,3.1,3.1,99,0.00,,,0.16,WUHU216HW,2013-09-16 23:55:00,
2013-09-16 19:00:00,73.3,73.0,30.28,ENE,68,0.7,3.1,99,0.00,,,0.16,WUHU216HW,2013-09-17 00:00:00,
2013-09-16 19:05:00,73.4,73.2,30.28,SSE,158,2.0,3.1,99,0.00,,,0.16,WUHU216HW,2013-09-17 00:05:00,
2013-09-16 19:10:00,73.6,73.4,30.27,ENE,68,3.4,3.4,99,0.00,,,0.16,WUHU216HW,2013-09-17 00:10:00,
2013-09-16 19:15:00,73.6,73.4,30.27,ENE,68,3.4,3.4,99,0.00,,,0.16,WUHU216HW,2013-09-17 00:15:00,
2013-09-16 19:20:00,73.8,73.5,30.28,NNE,23,0.4,3.4,99,0.00,,,0.16,WUHU216HW,2013-09-17 00:20:00,
2013-09-16 19:25:00,73.6,73.4,30.28,ESE,113,1.1,1.8,99,0.00,,,0.16,WUHU216HW,2013-09-17 00:25:00,
2013-09-16 19:30:00,73.8,73.5,30.28,ESE,113,4.5,4.5,99,0.00,,,0.16,WUHU216HW,2013-09-17 00:30:00,
2013-09-16 19:35:00,73.8,73.5,30.28,ENE,68,1.1,4.5,99,0.00,,,0.16,WUHU216HW,2013-09-17 00:35:00,
2013-09-16 19:40:00,74.2,73.9,30.28,ENE,68,1.6,4.5,99,0.00,,,0.16,WUHU216HW,2013-09-17 00:40:00,
2013-09-16 19:45:00,74.2,73.9,30.28,ESE,113,0.0,1.6,99,0.00,,,0.16,WUHU216HW,2013-09-17 00:45:00,
2013-09-16 19:50:00,74.2,73.9,30.28,NNE,23,1.3,1.6,99,0.00,,,0.16,WUHU216HW,2013-09-17 00:50:00,
2013-09-16 19:55:00,74.2,73.9,30.28,ENE,68,1.8,1.8,99,0.00,,,0.16,WUHU216HW,2013-09-17 00:55:00,
2013-09-16 20:00:00,74.3,74.1,30.28,ENE,68,0.0,1.8,99,0.00,,,0.16,WUHU216HW,2013-09-17 01:00:00,
2013-09-16 20:05:00,74.3,74.1,30.28,ENE,68,0.0,1.8,99,0.00,,,0.16,WUHU216HW,2013-09-17 01:05:00,
2013-09-16 20:10:00,74.5,74.3,30.28,ENE,68,1.1,1.1,99,0.00,,,0.16,WUHU216HW,2013-09-17 01:10:00,
2013-09-16 20:15:00,74.5,74.3,30.28,ESE,113,0.2,1.1,99,0.00,,,0.16,WUHU216HW,2013-09-17 01:15:00,
2013-09-16 20:20:00,74.7,74.4,30.28,East,90,2.2,2.2,99,0.00,,,0.16,WUHU216HW,2013-09-17 01:20:00,
2013-09-16 20:25:00,74.7,74.4,30.29,ESE,113,1.1,2.2,99,0.00,,,0.16,WUHU216HW,2013-09-17 01:25:00,
2013-09-16 20:30:00,74.9,74.6,30.29,ENE,68,1.6,2.2,99,0.00,,,0.16,WUHU216HW,2013-09-17 01:30:00,
2013-09-16 20:35:00,74.9,74.6,30.28,ENE,68,0.4,1.6,99,0.00,,,0.16,WUHU216HW,2013-09-17 01:35:00,
2013-09-16 20:40:00,74.9,74.6,30.29,ESE,113,0.9,1.6,99,0.00,,,0.16,WUHU216HW,2013-09-17 01:40:00,
2013-09-16 20:45:00,75.1,74.8,30.29,ESE,113,0.0,1.6,99,0.00,,,0.16,WUHU216HW,2013-09-17 01:45:00,
2013-09-16 20:50:00,75.1,74.8,30.29,ESE,113,0.0,0.9,99,0.00,,,0.16,WUHU216HW,2013-09-17 01:50:00,
2013-09-16 20:55:00,75.1,74.8,30.29,ESE,113,0.0,0.0,99,0.00,,,0.16,WUHU216HW,2013-09-17 01:55:00,
2013-09-16 21:00:00,75.2,75.0,30.29,East,90,1.1,1.1,99,0.00,,,0.16,WUHU216HW,2013-09-17 02:00:00,
2013-09-16 21:05:00,75.2,75.0,30.29,East,90,1.3,1.3,99,0.00,,,0.16,WUHU216HW,2013-09-17 02:05:00,
2013-09-16 21:10:00,75.2,75.0,30.29,ENE,68,0.7,1.3,99,0.00,,,0.16,WUHU216HW,2013-09-17 02:10:00,
2013-09-16 21:15:00,75.2,75.0,30.29,East,90,0.4,1.3,99,0.00,,,0.16,WUHU216HW,2013-09-17 02:15:00,
2013-09-16 21:20:00,75.4,75.2,30.29,ESE,113,0.0,0.7,99,0.00,,,0.16,WUHU216HW,2013-09-17 02:20:00,
2013-09-16 21:25:00,75.6,75.3,30.29,SE,135,0.4,0.7,99,0.00,,,0.16,WUHU216HW,2013-09-17 02:25:00,
2013-09-16 21:30:00,75.6,75.3,30.29,East,90,0.7,0.7,99,0.00,,,0.16,WUHU216HW,2013-09-17 02:30:00,
2013-09-16 21:35:00,75.6,75.3,30.29,East,90,0.7,0.7,99,0.00,,,0.16,WUHU216HW,2013-09-17 02:35:00,
2013-09-16 21:40:00,75.6,75.3,30.29,East,90,0.7,0.7,99,0.00,,,0.16,WUHU216HW,2013-09-17 02:40:00,
2013-09-16 21:45:00,75.8,75.5,30.28,East,90,1.6,1.6,99,0.00,,,0.16,WUHU216HW,2013-09-17 02:45:00,
2013-09-16 21:50:00,76.0,75.7,30.28,ESE,113,1.1,2.5,99,0.00,,,0.16,WUHU216HW,2013-09-17 02:50:00,
2013-09-16 21:55:00,76.0,75.7,30.28,ESE,113,1.1,2.5,99,0.00,,,0.16,WUHU216HW,2013-09-17 02:55:00,
2013-09-16 22:00:00,76.0,75.7,30.28,ESE,113,1.1,1.1,99,0.00,,,0.16,WUHU216HW,2013-09-17 03:00:00,
2013-09-16 22:05:00,76.1,75.9,30.28,East,90,5.1,5.1,99,0.00,,,0.16,WUHU216HW,2013-09-17 03:05:00,
2013-09-16 22:07:00,76.1,75.9,30.28,East,90,5.1,5.1,99,0.00,,,0.16,WUHU216HW,2013-09-17 03:07:00,
2013-09-16 22:10:00,76.1,75.9,30.28,East,90,5.1,5.1,99,0.00,,,0.16,WUHU216HW,2013-09-17 03:10:00,
2013-09-16 22:15:00,76.1,75.9,30.28,East,90,5.1,5.1,99,0.00,,,0.16,WUHU216HW,2013-09-17 03:15:00,